createdAt,value
2018-08-19T09:06:35.566Z,22.20
2018-08-19T09:09:05.934Z,22.50
2018-08-19T09:11:35.936Z,22.60
2018-08-19T09:14:05.201Z,22.90
2018-08-19T09:16:34.262Z,22.90
2018-08-19T09:19:03.591Z,23.20
2018-08-19T09:21:32.879Z,23.40
2018-08-19T09:24:02.076Z,23.10
2018-08-19T09:26:31.335Z,22.90
2018-08-19T09:29:00.609Z,22.70
2018-08-19T09:31:29.910Z,22.70
2018-08-19T09:33:59.082Z,22.70
2018-08-19T09:36:28.124Z,22.70
2018-08-19T09:38:57.338Z,22.80
2018-08-19T09:41:26.637Z,22.60
2018-08-19T09:43:55.789Z,22.50
2018-08-19T09:46:25.081Z,22.50
2018-08-19T09:48:54.502Z,22.50
2018-08-19T09:51:23.648Z,22.60
2018-08-19T09:53:52.733Z,22.80
2018-08-19T09:56:22.690Z,22.90
2018-08-19T09:58:57.189Z,23.00
2018-08-19T10:01:32.514Z,23.10
2018-08-19T10:04:03.842Z,22.90
2018-08-19T10:06:33.160Z,22.90
2018-08-19T10:09:02.663Z,22.80
2018-08-19T10:11:32.552Z,22.70
2018-08-19T10:14:04.223Z,22.60
2018-08-19T10:16:41.743Z,22.70
2018-08-19T10:19:11.339Z,22.80
2018-08-19T10:21:40.563Z,23.10
2018-08-19T10:24:20.540Z,23.10
2018-08-19T10:26:49.727Z,23.00
2018-08-19T10:29:18.917Z,23.40
2018-08-19T10:31:59.849Z,23.90
2018-08-19T10:34:31.153Z,24.10
2018-08-19T10:37:01.137Z,24.30
2018-08-19T10:39:31.492Z,24.20
2018-08-19T10:42:16.767Z,24.10
2018-08-19T10:44:47.753Z,23.90
2018-08-19T10:47:17.276Z,24.10
2018-08-19T10:49:56.219Z,24.20
2018-08-19T10:52:27.670Z,24.30
2018-08-19T10:54:58.907Z,24.60
2018-08-19T10:57:28.105Z,24.70
2018-08-19T10:59:58.668Z,24.70
2018-08-19T11:02:27.781Z,24.70
2018-08-19T11:05:09.638Z,24.70
2018-08-19T11:07:38.869Z,25.00
2018-08-19T11:10:20.671Z,25.40
2018-08-19T11:12:53.295Z,25.40
2018-08-19T11:15:44.169Z,25.40
2018-08-19T11:18:24.561Z,25.40
2018-08-19T11:20:56.905Z,25.50
2018-08-19T11:23:27.049Z,25.70
2018-08-19T11:25:57.565Z,25.60
2018-08-19T11:28:32.981Z,25.40
2018-08-19T11:31:02.242Z,25.00
2018-08-19T11:33:37.776Z,24.70
2018-08-19T11:36:07.457Z,24.30
2018-08-19T11:38:36.771Z,24.00
2018-08-19T11:41:07.340Z,23.80
2018-08-19T11:43:39.200Z,23.70
2018-08-19T11:46:08.994Z,23.60
2018-08-19T11:48:40.344Z,23.60
2018-08-19T11:51:09.958Z,23.70
2018-08-19T11:53:49.614Z,23.80
2018-08-19T11:56:19.039Z,23.90
2018-08-19T11:58:48.618Z,24.10
2018-08-19T12:01:19.389Z,24.20
2018-08-19T12:04:02.944Z,24.40
2018-08-19T12:06:33.421Z,24.40
2018-08-19T12:09:06.263Z,24.40
2018-08-19T12:11:38.618Z,24.30
2018-08-19T12:14:10.001Z,24.30
2018-08-19T12:16:56.601Z,24.30
2018-08-19T12:19:34.087Z,24.20
2018-08-19T12:22:12.448Z,24.40
2018-08-19T12:24:46.739Z,24.50
2018-08-19T12:27:18.740Z,24.60
2018-08-19T12:29:48.013Z,24.60
2018-08-19T12:33:05.099Z,24.60
2018-08-19T12:35:34.186Z,24.60
2018-08-19T12:38:03.531Z,24.70
2018-08-19T12:40:34.915Z,25.00
2018-08-19T12:43:04.629Z,25.00
2018-08-19T12:45:33.777Z,25.10
2018-08-19T12:48:03.278Z,25.10
2018-08-19T12:50:32.551Z,25.20
2018-08-19T12:53:01.651Z,25.40
2018-08-19T12:55:36.547Z,25.40
2018-08-19T12:58:08.126Z,25.20
2018-08-19T13:00:37.289Z,25.20
2018-08-19T13:03:06.528Z,25.30
2018-08-19T13:05:40.557Z,25.40
2018-08-19T13:08:22.513Z,25.60
2018-08-19T13:10:51.633Z,25.50
2018-08-19T13:13:20.757Z,25.50
2018-08-19T13:15:50.610Z,25.60
2018-08-19T13:18:28.325Z,25.60
2018-08-19T13:21:04.849Z,25.60
2018-08-19T13:23:34.446Z,25.60
2018-08-19T13:26:03.739Z,25.60
2018-08-19T13:28:36.959Z,25.60
2018-08-19T13:31:06.312Z,25.60
2018-08-19T13:33:36.378Z,25.80
2018-08-19T13:36:05.586Z,25.90
2018-08-19T13:38:37.631Z,26.00
2018-08-19T13:41:08.087Z,26.10
2018-08-19T13:43:37.877Z,26.10
2018-08-19T13:46:07.121Z,26.00
2018-08-19T13:48:37.163Z,26.10
2018-08-19T13:51:06.256Z,26.10
2018-08-19T13:53:35.428Z,26.10
2018-08-19T13:56:04.653Z,26.30
2018-08-19T13:58:34.094Z,26.00
2018-08-19T14:01:03.919Z,26.00
2018-08-19T14:03:33.819Z,26.00
2018-08-19T14:06:02.956Z,25.90
2018-08-19T14:08:32.211Z,26.00
2018-08-19T14:11:01.264Z,26.00
2018-08-19T14:13:30.519Z,26.20
2018-08-19T14:15:59.612Z,26.30
2018-08-19T14:18:30.055Z,26.30
2018-08-19T14:20:59.097Z,26.30
2018-08-19T14:23:28.427Z,26.30
2018-08-19T14:25:57.600Z,26.20
2018-08-19T14:28:26.901Z,26.30
2018-08-19T14:30:55.967Z,26.30
2018-08-19T14:33:25.666Z,26.40
2018-08-19T14:35:54.865Z,26.30
2018-08-19T14:38:24.299Z,26.20
2018-08-19T14:40:53.584Z,26.00
2018-08-19T14:43:22.741Z,26.10
2018-08-19T14:45:51.954Z,26.20
2018-08-19T14:48:21.257Z,26.40
2018-08-19T14:50:50.421Z,26.60
2018-08-19T14:53:19.636Z,26.80
2018-08-19T14:55:48.755Z,26.80
2018-08-19T14:58:17.842Z,26.80
2018-08-19T15:00:46.895Z,26.40
2018-08-19T15:03:16.299Z,26.30
2018-08-19T15:05:58.524Z,26.20
2018-08-19T15:08:27.795Z,26.20
2018-08-19T15:11:02.382Z,26.20
2018-08-19T15:13:32.098Z,26.20
2018-08-19T15:16:01.283Z,26.30
2018-08-19T15:18:30.503Z,26.50
2018-08-19T15:20:59.698Z,26.90
2018-08-19T15:23:29.304Z,27.50
2018-08-19T15:25:58.403Z,27.60
2018-08-19T15:28:27.467Z,27.80
2018-08-19T15:30:56.757Z,28.00
2018-08-19T15:33:26.115Z,28.20
2018-08-19T15:35:55.241Z,28.50
2018-08-19T15:38:24.319Z,28.20
2018-08-19T15:40:53.506Z,28.00
2018-08-19T15:43:22.591Z,28.00
2018-08-19T15:45:51.669Z,28.20
2018-08-19T15:48:20.789Z,28.10
2018-08-19T15:50:52.105Z,27.90
2018-08-19T15:53:21.470Z,27.80
2018-08-19T15:55:50.767Z,28.20
2018-08-19T15:58:19.916Z,28.90
2018-08-19T16:00:49.629Z,29.40
2018-08-19T16:03:18.839Z,29.10
2018-08-19T16:05:48.012Z,28.80
2018-08-19T16:08:17.205Z,28.50
2018-08-19T16:10:46.491Z,28.20
2018-08-19T16:13:15.778Z,28.30
2018-08-19T16:15:44.901Z,28.80
2018-08-19T16:18:14.123Z,28.80
2018-08-19T16:20:49.136Z,28.80
2018-08-19T16:23:18.296Z,28.80
2018-08-19T16:25:47.557Z,28.80
2018-08-19T16:28:16.734Z,28.70
2018-08-19T16:30:52.680Z,28.80
2018-08-19T16:33:21.817Z,28.90
2018-08-19T16:35:50.912Z,29.00
2018-08-19T16:38:20.342Z,29.10
2018-08-19T16:40:49.475Z,28.90
2018-08-19T16:43:18.742Z,29.00
2018-08-19T16:45:47.906Z,29.30
2018-08-19T16:48:17.077Z,29.50
2018-08-19T16:50:46.355Z,29.90
2018-08-19T16:53:15.611Z,30.30
2018-08-19T16:55:44.769Z,30.50
2018-08-19T16:58:14.056Z,29.90
2018-08-19T17:00:43.263Z,29.50
2018-08-19T17:03:25.316Z,29.00
2018-08-19T17:05:55.549Z,29.00
2018-08-19T17:08:24.796Z,29.40
2018-08-19T17:10:54.202Z,29.30
2018-08-19T17:13:23.279Z,28.90
2018-08-19T17:15:52.555Z,28.80
2018-08-19T17:18:21.732Z,28.80
2018-08-19T17:20:51.019Z,29.10
2018-08-19T17:23:22.563Z,29.20
2018-08-19T17:25:56.005Z,29.00
2018-08-19T17:28:26.675Z,28.90
2018-08-19T17:30:55.845Z,28.40
2018-08-19T17:33:26.139Z,28.00
2018-08-19T17:35:55.734Z,27.60
2018-08-19T17:38:28.622Z,27.50
2018-08-19T17:40:58.381Z,27.40
2018-08-19T17:43:45.046Z,27.50
2018-08-19T17:46:15.693Z,27.50
2018-08-19T17:48:45.593Z,27.40
2018-08-19T17:51:26.506Z,27.10
2018-08-19T17:53:55.753Z,26.70
2018-08-19T17:56:24.979Z,26.10
2018-08-19T17:58:54.245Z,25.70
2018-08-19T18:01:24.016Z,25.30
2018-08-19T18:03:53.459Z,25.00
2018-08-19T18:06:22.645Z,24.80
2018-08-19T18:08:52.781Z,24.60
2018-08-19T18:11:22.289Z,24.40
2018-08-19T18:13:51.517Z,24.40
2018-08-19T18:16:20.661Z,24.30
2018-08-19T18:18:49.714Z,24.30
2018-08-19T18:21:18.802Z,24.10
2018-08-19T18:23:49.017Z,24.00
2018-08-19T18:26:18.843Z,23.90
2018-08-19T18:28:48.737Z,23.90
2018-08-19T18:31:21.324Z,23.80
2018-08-19T18:33:59.940Z,23.80
2018-08-19T18:36:30.980Z,23.80
2018-08-19T18:39:00.666Z,23.80
2018-08-19T18:41:36.332Z,23.70
2018-08-19T18:44:07.660Z,23.60
2018-08-19T18:46:37.107Z,23.60
2018-08-19T18:49:09.823Z,23.60
2018-08-19T18:51:39.968Z,23.60
2018-08-19T18:54:17.183Z,23.60
2018-08-19T18:56:46.375Z,23.60
2018-08-19T18:59:16.473Z,23.50
2018-08-19T19:01:45.587Z,23.50
2018-08-19T19:04:14.674Z,23.50
2018-08-19T19:06:44.059Z,23.50
2018-08-19T19:09:13.124Z,23.50
2018-08-19T19:11:42.378Z,23.50
2018-08-19T19:14:18.425Z,23.50
2018-08-19T19:16:49.585Z,23.50
2018-08-19T19:19:19.286Z,23.50
2018-08-19T19:21:53.871Z,23.40
2018-08-19T19:24:28.544Z,23.40
2018-08-19T19:26:58.210Z,23.30
2018-08-19T19:29:28.608Z,23.20
2018-08-19T19:31:58.893Z,23.10
2018-08-19T19:34:31.238Z,23.10
2018-08-19T19:37:00.529Z,22.90
2018-08-19T19:39:29.578Z,22.90
2018-08-19T19:42:02.857Z,22.90
2018-08-19T19:44:34.609Z,22.90
2018-08-19T19:47:03.889Z,22.80
2018-08-19T19:49:33.092Z,22.70
2018-08-19T19:52:03.648Z,22.70
2018-08-19T19:54:33.898Z,22.60
2018-08-19T19:57:03.564Z,22.50
2018-08-19T19:59:33.800Z,22.40
2018-08-19T20:02:03.042Z,22.30
2018-08-19T20:04:35.372Z,22.30
2018-08-19T20:07:04.603Z,22.20
2018-08-19T20:09:36.369Z,22.20
2018-08-19T20:12:08.332Z,22.20
2018-08-19T20:14:43.375Z,22.20
2018-08-19T20:17:12.682Z,22.20
2018-08-19T20:19:42.079Z,22.20
2018-08-19T20:22:15.337Z,22.20
2018-08-19T20:24:44.608Z,22.30
2018-08-19T20:27:14.241Z,22.30
2018-08-19T20:29:43.295Z,22.30
2018-08-19T20:32:12.544Z,22.30
2018-08-19T20:34:41.697Z,22.20
2018-08-19T20:37:10.949Z,22.10
2018-08-19T20:39:40.203Z,21.90
2018-08-19T20:42:09.389Z,21.90
2018-08-19T20:44:39.113Z,21.80
2018-08-19T20:47:08.404Z,21.80
2018-08-19T20:49:37.591Z,21.70
2018-08-19T20:52:07.352Z,21.60
2018-08-19T20:54:36.439Z,21.60
2018-08-19T20:57:05.598Z,21.40
2018-08-19T20:59:36.665Z,21.30
2018-08-19T21:02:07.417Z,21.30
2018-08-19T21:04:36.617Z,21.20
2018-08-19T21:07:06.519Z,21.10
2018-08-19T21:09:36.693Z,21.10
2018-08-19T21:12:05.868Z,20.90
2018-08-19T21:14:35.011Z,20.80
2018-08-19T21:17:06.479Z,20.80
2018-08-19T21:19:36.261Z,20.80
2018-08-19T21:22:05.364Z,20.80
2018-08-19T21:24:34.673Z,20.90
2018-08-19T21:27:04.030Z,20.90
2018-08-19T21:29:33.396Z,21.00
2018-08-19T21:32:02.634Z,21.00
2018-08-19T21:34:31.832Z,21.00
2018-08-19T21:37:01.274Z,21.00
2018-08-19T21:39:31.340Z,21.00
2018-08-19T21:42:00.484Z,21.00
2018-08-19T21:44:29.756Z,21.00
2018-08-19T21:46:59.000Z,21.00
2018-08-19T21:49:28.095Z,20.90
2018-08-19T21:51:57.644Z,20.90
2018-08-19T21:54:26.893Z,20.80
2018-08-19T21:56:55.982Z,20.70
2018-08-19T21:59:26.039Z,20.70
2018-08-19T22:01:57.606Z,20.70
2018-08-19T22:04:27.068Z,20.70
2018-08-19T22:06:56.904Z,20.70
2018-08-19T22:09:32.763Z,20.60
2018-08-19T22:12:02.338Z,20.60
2018-08-19T22:14:32.242Z,20.50
2018-08-19T22:17:06.732Z,20.40
2018-08-19T22:19:35.847Z,20.20
2018-08-19T22:22:05.131Z,20.20
2018-08-19T22:24:34.312Z,20.00
2018-08-19T22:27:08.733Z,19.90
2018-08-19T22:29:37.875Z,19.90
2018-08-19T22:32:06.974Z,19.80
2018-08-19T22:34:36.014Z,19.70
2018-08-19T22:37:05.829Z,19.60
2018-08-19T22:39:35.016Z,19.50
2018-08-19T22:42:04.229Z,19.40
2018-08-19T22:44:33.317Z,19.40
2018-08-19T22:47:02.385Z,19.30
2018-08-19T22:49:31.544Z,19.30
2018-08-19T22:52:34.319Z,19.30
2018-08-19T22:55:03.569Z,19.20
2018-08-19T22:57:32.645Z,19.20
2018-08-19T23:00:01.963Z,19.20
2018-08-19T23:02:31.073Z,19.10
2018-08-19T23:05:00.526Z,19.10
2018-08-19T23:07:29.658Z,19.10
2018-08-19T23:09:58.719Z,19.00
2018-08-19T23:12:27.838Z,19.00
2018-08-19T23:15:08.031Z,18.90
2018-08-19T23:17:37.297Z,18.90
2018-08-19T23:20:06.718Z,18.90
2018-08-19T23:22:35.998Z,18.80
2018-08-19T23:25:05.819Z,18.70
2018-08-19T23:27:35.160Z,18.70
2018-08-19T23:30:04.725Z,18.70
2018-08-19T23:32:33.889Z,18.60
2018-08-19T23:35:03.130Z,18.60
2018-08-19T23:37:32.319Z,18.60
2018-08-19T23:40:01.617Z,18.50
2018-08-19T23:42:30.754Z,18.60
2018-08-19T23:45:00.068Z,18.50
2018-08-19T23:47:29.096Z,18.50
2018-08-19T23:49:58.296Z,18.50
2018-08-19T23:52:28.065Z,18.50
2018-08-19T23:54:57.234Z,18.50
2018-08-19T23:57:26.534Z,18.50
2018-08-19T23:59:55.710Z,18.60
